sensor_id;sensor_type;location;lat;lon;timestamp;temperature;humidity
53802;DHT22;39709;53.334;6.534;2022-10-31T00:00:57;12.20;99.90
53802;DHT22;39709;53.334;6.534;2022-10-31T00:03:23;12.20;99.90
53802;DHT22;39709;53.334;6.534;2022-10-31T00:05:49;12.10;99.90
53802;DHT22;39709;53.334;6.534;2022-10-31T00:08:18;12.20;99.90
53802;DHT22;39709;53.334;6.534;2022-10-31T00:10:45;11.90;99.90
53802;DHT22;39709;53.334;6.534;2022-10-31T00:13:12;12.10;99.90
53802;DHT22;39709;53.334;6.534;2022-10-31T00:15:39;12.20;99.90
53802;DHT22;39709;53.334;6.534;2022-10-31T00:18:06;11.90;99.90
53802;DHT22;39709;53.334;6.534;2022-10-31T00:20:32;12.10;99.90
53802;DHT22;39709;53.334;6.534;2022-10-31T00:22:59;12.10;99.90
53802;DHT22;39709;53.334;6.534;2022-10-31T00:25:26;12.10;99.90
53802;DHT22;39709;53.334;6.534;2022-10-31T00:27:52;11.80;99.90
53802;DHT22;39709;53.334;6.534;2022-10-31T00:30:18;12.10;99.90
53802;DHT22;39709;53.334;6.534;2022-10-31T00:32:43;11.90;99.90
53802;DHT22;39709;53.334;6.534;2022-10-31T00:35:09;12.00;99.90
53802;DHT22;39709;53.334;6.534;2022-10-31T00:37:35;11.70;99.90
53802;DHT22;39709;53.334;6.534;2022-10-31T00:40:00;11.80;99.90
53802;DHT22;39709;53.334;6.534;2022-10-31T00:42:26;11.80;99.90
53802;DHT22;39709;53.334;6.534;2022-10-31T00:44:52;11.90;99.90
53802;DHT22;39709;53.334;6.534;2022-10-31T00:47:17;11.90;99.90
53802;DHT22;39709;53.334;6.534;2022-10-31T00:49:43;11.50;99.90
53802;DHT22;39709;53.334;6.534;2022-10-31T00:52:09;11.60;99.90
53802;DHT22;39709;53.334;6.534;2022-10-31T00:54:34;11.50;99.90
53802;DHT22;39709;53.334;6.534;2022-10-31T00:57:00;11.50;99.90
53802;DHT22;39709;53.334;6.534;2022-10-31T00:59:26;11.60;99.90
53802;DHT22;39709;53.334;6.534;2022-10-31T01:01:51;11.40;99.90
53802;DHT22;39709;53.334;6.534;2022-10-31T01:04:17;11.70;99.90
53802;DHT22;39709;53.334;6.534;2022-10-31T01:06:42;11.50;99.90
53802;DHT22;39709;53.334;6.534;2022-10-31T01:09:08;11.70;99.90
53802;DHT22;39709;53.334;6.534;2022-10-31T01:11:34;11.50;99.90
53802;DHT22;39709;53.334;6.534;2022-10-31T01:14:00;11.60;99.90
53802;DHT22;39709;53.334;6.534;2022-10-31T01:16:26;11.30;99.90
53802;DHT22;39709;53.334;6.534;2022-10-31T01:18:52;11.40;99.90
53802;DHT22;39709;53.334;6.534;2022-10-31T01:21:20;11.20;99.90
53802;DHT22;39709;53.334;6.534;2022-10-31T01:23:47;11.40;99.90
53802;DHT22;39709;53.334;6.534;2022-10-31T01:26:18;11.50;99.90
53802;DHT22;39709;53.334;6.534;2022-10-31T01:29:05;11.50;99.90
53802;DHT22;39709;53.334;6.534;2022-10-31T01:31:33;11.10;99.90
53802;DHT22;39709;53.334;6.534;2022-10-31T01:33:59;11.20;99.90
53802;DHT22;39709;53.334;6.534;2022-10-31T01:36:28;11.10;99.90
53802;DHT22;39709;53.334;6.534;2022-10-31T01:38:57;11.20;99.90
53802;DHT22;39709;53.334;6.534;2022-10-31T01:41:27;11.40;99.90
53802;DHT22;39709;53.334;6.534;2022-10-31T01:43:56;11.50;99.90
53802;DHT22;39709;53.334;6.534;2022-10-31T01:46:29;11.30;99.90
53802;DHT22;39709;53.334;6.534;2022-10-31T01:48:58;11.10;99.90
53802;DHT22;39709;53.334;6.534;2022-10-31T01:51:29;11.20;99.90
53802;DHT22;39709;53.334;6.534;2022-10-31T01:53:58;11.10;99.90
53802;DHT22;39709;53.334;6.534;2022-10-31T01:56:25;11.10;99.90
53802;DHT22;39709;53.334;6.534;2022-10-31T01:58:51;11.30;99.90
53802;DHT22;39709;53.334;6.534;2022-10-31T02:01:19;11.00;99.90
53802;DHT22;39709;53.334;6.534;2022-10-31T02:03:46;11.30;99.90
53802;DHT22;39709;53.334;6.534;2022-10-31T02:06:31;11.00;99.90
53802;DHT22;39709;53.334;6.534;2022-10-31T02:08:59;11.20;99.90
53802;DHT22;39709;53.334;6.534;2022-10-31T02:11:27;11.20;99.90
53802;DHT22;39709;53.334;6.534;2022-10-31T02:13:54;11.10;99.90
53802;DHT22;39709;53.334;6.534;2022-10-31T02:16:20;11.30;99.90
53802;DHT22;39709;53.334;6.534;2022-10-31T02:18:45;10.90;99.90
53802;DHT22;39709;53.334;6.534;2022-10-31T02:26:45;11.00;99.90
53802;DHT22;39709;53.334;6.534;2022-10-31T02:32:29;11.10;99.90
53802;DHT22;39709;53.334;6.534;2022-10-31T02:43:21;11.20;99.90
53802;DHT22;39709;53.334;6.534;2022-10-31T02:48:19;10.90;99.90
53802;DHT22;39709;53.334;6.534;2022-10-31T02:51:01;10.90;99.90
53802;DHT22;39709;53.334;6.534;2022-10-31T02:53:34;10.80;99.90
53802;DHT22;39709;53.334;6.534;2022-10-31T02:56:12;11.10;99.90
53802;DHT22;39709;53.334;6.534;2022-10-31T02:58:42;10.80;99.90
53802;DHT22;39709;53.334;6.534;2022-10-31T03:01:25;10.80;99.90
53802;DHT22;39709;53.334;6.534;2022-10-31T03:04:21;11.10;99.90
53802;DHT22;39709;53.334;6.534;2022-10-31T03:07:11;11.00;99.90
53802;DHT22;39709;53.334;6.534;2022-10-31T03:15:44;10.60;99.90
53802;DHT22;39709;53.334;6.534;2022-10-31T03:18:28;10.90;99.90
53802;DHT22;39709;53.334;6.534;2022-10-31T03:21:12;10.90;99.90
53802;DHT22;39709;53.334;6.534;2022-10-31T03:23:40;10.90;99.90
53802;DHT22;39709;53.334;6.534;2022-10-31T03:26:08;10.80;99.90
53802;DHT22;39709;53.334;6.534;2022-10-31T03:28:43;10.70;99.90
53802;DHT22;39709;53.334;6.534;2022-10-31T03:31:12;10.70;99.90
53802;DHT22;39709;53.334;6.534;2022-10-31T03:33:40;10.70;99.90
53802;DHT22;39709;53.334;6.534;2022-10-31T03:36:08;10.40;99.90
53802;DHT22;39709;53.334;6.534;2022-10-31T03:38:37;10.30;99.90
53802;DHT22;39709;53.334;6.534;2022-10-31T03:41:05;10.60;99.90
53802;DHT22;39709;53.334;6.534;2022-10-31T03:43:37;10.40;99.90
53802;DHT22;39709;53.334;6.534;2022-10-31T03:46:04;10.30;99.90
53802;DHT22;39709;53.334;6.534;2022-10-31T03:48:30;10.50;99.90
53802;DHT22;39709;53.334;6.534;2022-10-31T03:51:26;10.40;99.90
53802;DHT22;39709;53.334;6.534;2022-10-31T03:56:53;10.50;99.90
53802;DHT22;39709;53.334;6.534;2022-10-31T03:59:28;10.60;99.90
53802;DHT22;39709;53.334;6.534;2022-10-31T04:02:00;10.30;99.90
53802;DHT22;39709;53.334;6.534;2022-10-31T04:04:29;10.50;99.90
53802;DHT22;39709;53.334;6.534;2022-10-31T04:06:56;10.20;99.90
53802;DHT22;39709;53.334;6.534;2022-10-31T04:09:25;10.50;99.90
53802;DHT22;39709;53.334;6.534;2022-10-31T04:11:54;10.20;99.90
53802;DHT22;39709;53.334;6.534;2022-10-31T04:14:22;10.50;99.90
53802;DHT22;39709;53.334;6.534;2022-10-31T04:16:49;10.40;99.90
53802;DHT22;39709;53.334;6.534;2022-10-31T04:19:15;10.40;99.90
53802;DHT22;39709;53.334;6.534;2022-10-31T04:21:40;10.30;99.90
53802;DHT22;39709;53.334;6.534;2022-10-31T04:24:09;10.40;99.90
53802;DHT22;39709;53.334;6.534;2022-10-31T04:26:34;10.10;99.90
53802;DHT22;39709;53.334;6.534;2022-10-31T04:29:00;10.10;99.90
53802;DHT22;39709;53.334;6.534;2022-10-31T04:31:26;10.40;99.90
53802;DHT22;39709;53.334;6.534;2022-10-31T04:33:52;10.30;99.90
53802;DHT22;39709;53.334;6.534;2022-10-31T04:36:18;10.30;99.90
53802;DHT22;39709;53.334;6.534;2022-10-31T04:38:43;10.10;99.90
53802;DHT22;39709;53.334;6.534;2022-10-31T04:41:09;10.00;99.90
53802;DHT22;39709;53.334;6.534;2022-10-31T04:43:35;10.20;99.90
53802;DHT22;39709;53.334;6.534;2022-10-31T04:46:01;10.00;99.90
53802;DHT22;39709;53.334;6.534;2022-10-31T04:48:26;10.20;99.90
53802;DHT22;39709;53.334;6.534;2022-10-31T04:50:52;10.10;99.90
53802;DHT22;39709;53.334;6.534;2022-10-31T04:53:18;10.20;99.90
53802;DHT22;39709;53.334;6.534;2022-10-31T04:55:43;10.10;99.90
53802;DHT22;39709;53.334;6.534;2022-10-31T04:58:09;10.00;99.90
53802;DHT22;39709;53.334;6.534;2022-10-31T05:00:34;9.80;99.90
53802;DHT22;39709;53.334;6.534;2022-10-31T05:03:00;9.90;99.90
53802;DHT22;39709;53.334;6.534;2022-10-31T05:05:28;10.20;99.90
53802;DHT22;39709;53.334;6.534;2022-10-31T05:07:55;9.80;99.90
53802;DHT22;39709;53.334;6.534;2022-10-31T05:10:23;10.10;99.90
53802;DHT22;39709;53.334;6.534;2022-10-31T05:12:52;10.00;99.90
53802;DHT22;39709;53.334;6.534;2022-10-31T05:15:19;10.00;99.90
53802;DHT22;39709;53.334;6.534;2022-10-31T05:17:45;9.80;99.90
53802;DHT22;39709;53.334;6.534;2022-10-31T05:20:12;9.90;99.90
53802;DHT22;39709;53.334;6.534;2022-10-31T05:22:43;10.00;99.90
53802;DHT22;39709;53.334;6.534;2022-10-31T05:25:09;10.00;99.90
53802;DHT22;39709;53.334;6.534;2022-10-31T05:27:34;10.00;99.90
53802;DHT22;39709;53.334;6.534;2022-10-31T05:30:00;10.00;99.90
53802;DHT22;39709;53.334;6.534;2022-10-31T05:32:26;9.80;99.90
53802;DHT22;39709;53.334;6.534;2022-10-31T05:34:51;9.70;99.90
53802;DHT22;39709;53.334;6.534;2022-10-31T05:37:17;10.00;99.90
53802;DHT22;39709;53.334;6.534;2022-10-31T05:39:42;9.80;99.90
53802;DHT22;39709;53.334;6.534;2022-10-31T05:42:08;10.10;99.90
53802;DHT22;39709;53.334;6.534;2022-10-31T05:44:34;9.90;99.90
53802;DHT22;39709;53.334;6.534;2022-10-31T05:46:59;9.70;99.90
53802;DHT22;39709;53.334;6.534;2022-10-31T05:49:25;9.90;99.90
53802;DHT22;39709;53.334;6.534;2022-10-31T05:51:51;10.00;99.90
53802;DHT22;39709;53.334;6.534;2022-10-31T05:54:16;10.00;99.90
53802;DHT22;39709;53.334;6.534;2022-10-31T05:56:42;9.90;99.90
53802;DHT22;39709;53.334;6.534;2022-10-31T05:59:07;9.60;99.90
53802;DHT22;39709;53.334;6.534;2022-10-31T06:01:33;9.90;99.90
53802;DHT22;39709;53.334;6.534;2022-10-31T06:03:59;9.90;99.90
53802;DHT22;39709;53.334;6.534;2022-10-31T06:06:24;9.80;99.90
53802;DHT22;39709;53.334;6.534;2022-10-31T06:08:50;9.80;99.90
53802;DHT22;39709;53.334;6.534;2022-10-31T06:11:16;9.80;99.90
53802;DHT22;39709;53.334;6.534;2022-10-31T06:13:41;10.00;99.90
53802;DHT22;39709;53.334;6.534;2022-10-31T06:16:07;10.00;99.90
53802;DHT22;39709;53.334;6.534;2022-10-31T06:18:33;9.70;99.90
53802;DHT22;39709;53.334;6.534;2022-10-31T06:20:58;9.90;99.90
53802;DHT22;39709;53.334;6.534;2022-10-31T06:23:24;9.80;99.90
53802;DHT22;39709;53.334;6.534;2022-10-31T06:25:50;9.70;99.90
53802;DHT22;39709;53.334;6.534;2022-10-31T06:28:16;9.50;99.90
53802;DHT22;39709;53.334;6.534;2022-10-31T06:30:42;9.60;99.90
53802;DHT22;39709;53.334;6.534;2022-10-31T06:33:07;9.60;99.90
53802;DHT22;39709;53.334;6.534;2022-10-31T06:35:33;9.50;99.90
53802;DHT22;39709;53.334;6.534;2022-10-31T06:37:59;9.80;99.90
53802;DHT22;39709;53.334;6.534;2022-10-31T06:40:24;9.50;99.90
53802;DHT22;39709;53.334;6.534;2022-10-31T06:43:00;9.80;99.90
53802;DHT22;39709;53.334;6.534;2022-10-31T06:45:26;9.80;99.90
53802;DHT22;39709;53.334;6.534;2022-10-31T06:47:53;9.80;99.90
53802;DHT22;39709;53.334;6.534;2022-10-31T06:50:20;9.80;99.90
53802;DHT22;39709;53.334;6.534;2022-10-31T06:52:57;9.80;99.90
53802;DHT22;39709;53.334;6.534;2022-10-31T06:55:24;9.80;99.90
53802;DHT22;39709;53.334;6.534;2022-10-31T06:57:58;9.70;99.90
53802;DHT22;39709;53.334;6.534;2022-10-31T07:00:26;9.40;99.90
53802;DHT22;39709;53.334;6.534;2022-10-31T07:03:00;9.50;99.90
53802;DHT22;39709;53.334;6.534;2022-10-31T07:05:27;9.20;99.90
53802;DHT22;39709;53.334;6.534;2022-10-31T07:07:54;9.20;99.90
53802;DHT22;39709;53.334;6.534;2022-10-31T07:10:20;9.50;99.90
53802;DHT22;39709;53.334;6.534;2022-10-31T07:12:46;9.20;99.90
53802;DHT22;39709;53.334;6.534;2022-10-31T07:15:12;9.20;99.90
53802;DHT22;39709;53.334;6.534;2022-10-31T07:17:37;9.20;99.90
53802;DHT22;39709;53.334;6.534;2022-10-31T07:20:03;9.60;99.90
53802;DHT22;39709;53.334;6.534;2022-10-31T07:22:34;9.40;99.90
53802;DHT22;39709;53.334;6.534;2022-10-31T07:25:00;9.70;99.90
53802;DHT22;39709;53.334;6.534;2022-10-31T07:27:25;9.70;99.90
53802;DHT22;39709;53.334;6.534;2022-10-31T07:29:51;9.70;99.90
53802;DHT22;39709;53.334;6.534;2022-10-31T07:32:16;9.90;99.90
53802;DHT22;39709;53.334;6.534;2022-10-31T07:34:42;9.90;99.90
53802;DHT22;39709;53.334;6.534;2022-10-31T07:37:08;10.00;99.90
53802;DHT22;39709;53.334;6.534;2022-10-31T07:39:33;10.10;99.90
53802;DHT22;39709;53.334;6.534;2022-10-31T07:41:59;10.10;99.90
53802;DHT22;39709;53.334;6.534;2022-10-31T07:44:25;10.20;99.90
53802;DHT22;39709;53.334;6.534;2022-10-31T07:46:50;10.10;99.90
53802;DHT22;39709;53.334;6.534;2022-10-31T07:49:16;10.00;99.90
53802;DHT22;39709;53.334;6.534;2022-10-31T07:51:41;10.50;99.90
53802;DHT22;39709;53.334;6.534;2022-10-31T07:54:07;10.30;99.90
53802;DHT22;39709;53.334;6.534;2022-10-31T07:56:33;10.50;99.90
53802;DHT22;39709;53.334;6.534;2022-10-31T07:58:58;10.50;99.90
53802;DHT22;39709;53.334;6.534;2022-10-31T08:01:24;10.40;99.90
53802;DHT22;39709;53.334;6.534;2022-10-31T08:03:50;10.30;99.90
53802;DHT22;39709;53.334;6.534;2022-10-31T08:06:15;10.60;99.90
53802;DHT22;39709;53.334;6.534;2022-10-31T08:08:41;10.30;99.90
53802;DHT22;39709;53.334;6.534;2022-10-31T08:11:07;10.40;99.90
53802;DHT22;39709;53.334;6.534;2022-10-31T08:13:32;10.30;99.90
53802;DHT22;39709;53.334;6.534;2022-10-31T08:15:58;10.70;99.90
53802;DHT22;39709;53.334;6.534;2022-10-31T08:18:29;10.40;99.90
53802;DHT22;39709;53.334;6.534;2022-10-31T08:20:55;10.70;99.90
53802;DHT22;39709;53.334;6.534;2022-10-31T08:23:20;10.60;99.90
53802;DHT22;39709;53.334;6.534;2022-10-31T08:25:46;10.40;99.90
53802;DHT22;39709;53.334;6.534;2022-10-31T08:28:14;10.50;99.90
53802;DHT22;39709;53.334;6.534;2022-10-31T08:30:41;10.80;99.90
53802;DHT22;39709;53.334;6.534;2022-10-31T08:33:14;10.90;99.90
53802;DHT22;39709;53.334;6.534;2022-10-31T08:35:40;10.60;99.90
53802;DHT22;39709;53.334;6.534;2022-10-31T08:38:06;10.90;99.90
53802;DHT22;39709;53.334;6.534;2022-10-31T08:40:33;10.70;99.90
53802;DHT22;39709;53.334;6.534;2022-10-31T08:43:05;10.50;99.90
53802;DHT22;39709;53.334;6.534;2022-10-31T08:45:33;11.00;99.90
53802;DHT22;39709;53.334;6.534;2022-10-31T08:48:00;11.00;99.90
53802;DHT22;39709;53.334;6.534;2022-10-31T08:50:28;10.70;99.90
53802;DHT22;39709;53.334;6.534;2022-10-31T08:53:03;10.60;99.90
53802;DHT22;39709;53.334;6.534;2022-10-31T08:55:29;10.70;99.90
53802;DHT22;39709;53.334;6.534;2022-10-31T08:57:58;11.10;99.90
53802;DHT22;39709;53.334;6.534;2022-10-31T09:00:24;11.10;99.90
53802;DHT22;39709;53.334;6.534;2022-10-31T09:03:08;11.30;99.90
53802;DHT22;39709;53.334;6.534;2022-10-31T09:05:34;11.00;99.90
53802;DHT22;39709;53.334;6.534;2022-10-31T09:08:02;11.40;99.90
53802;DHT22;39709;53.334;6.534;2022-10-31T09:10:29;11.20;99.90
53802;DHT22;39709;53.334;6.534;2022-10-31T09:12:59;11.60;99.90
53802;DHT22;39709;53.334;6.534;2022-10-31T09:15:26;11.60;99.90
53802;DHT22;39709;53.334;6.534;2022-10-31T09:17:52;11.40;99.90
53802;DHT22;39709;53.334;6.534;2022-10-31T09:20:19;11.80;99.90
53802;DHT22;39709;53.334;6.534;2022-10-31T09:22:45;11.80;99.90
53802;DHT22;39709;53.334;6.534;2022-10-31T09:25:10;11.90;99.90
53802;DHT22;39709;53.334;6.534;2022-10-31T09:27:36;11.50;99.90
53802;DHT22;39709;53.334;6.534;2022-10-31T09:30:03;11.80;99.90
53802;DHT22;39709;53.334;6.534;2022-10-31T09:32:29;11.90;99.90
53802;DHT22;39709;53.334;6.534;2022-10-31T09:34:55;11.90;99.90
53802;DHT22;39709;53.334;6.534;2022-10-31T09:37:20;11.60;99.90
53802;DHT22;39709;53.334;6.534;2022-10-31T09:39:46;11.60;99.90
53802;DHT22;39709;53.334;6.534;2022-10-31T09:45:15;12.00;99.90
53802;DHT22;39709;53.334;6.534;2022-10-31T09:50:44;12.20;99.90
53802;DHT22;39709;53.334;6.534;2022-10-31T09:53:37;12.10;99.90
53802;DHT22;39709;53.334;6.534;2022-10-31T09:56:08;12.20;99.90
53802;DHT22;39709;53.334;6.534;2022-10-31T09:58:40;12.40;99.90
53802;DHT22;39709;53.334;6.534;2022-10-31T10:03:50;12.60;99.90
53802;DHT22;39709;53.334;6.534;2022-10-31T10:06:24;12.70;99.90
53802;DHT22;39709;53.334;6.534;2022-10-31T10:08:51;12.80;99.90
53802;DHT22;39709;53.334;6.534;2022-10-31T10:11:42;12.50;99.90
53802;DHT22;39709;53.334;6.534;2022-10-31T10:25:39;12.80;99.90
53802;DHT22;39709;53.334;6.534;2022-10-31T10:28:27;12.80;99.90
53802;DHT22;39709;53.334;6.534;2022-10-31T10:31:01;12.60;99.90
53802;DHT22;39709;53.334;6.534;2022-10-31T10:36:13;13.00;99.90
53802;DHT22;39709;53.334;6.534;2022-10-31T10:38:52;13.00;99.90
53802;DHT22;39709;53.334;6.534;2022-10-31T10:41:21;13.10;99.90
53802;DHT22;39709;53.334;6.534;2022-10-31T10:43:50;13.30;99.90
53802;DHT22;39709;53.334;6.534;2022-10-31T10:59:47;13.30;99.90
53802;DHT22;39709;53.334;6.534;2022-10-31T11:02:23;13.40;99.90
53802;DHT22;39709;53.334;6.534;2022-10-31T11:04:52;13.40;99.90
53802;DHT22;39709;53.334;6.534;2022-10-31T11:07:18;13.50;99.90
53802;DHT22;39709;53.334;6.534;2022-10-31T11:09:44;13.80;99.90
53802;DHT22;39709;53.334;6.534;2022-10-31T11:12:11;13.50;99.90
53802;DHT22;39709;53.334;6.534;2022-10-31T11:14:58;13.70;99.90
53802;DHT22;39709;53.334;6.534;2022-10-31T11:17:32;13.70;99.90
53802;DHT22;39709;53.334;6.534;2022-10-31T11:22:38;13.70;99.90
53802;DHT22;39709;53.334;6.534;2022-10-31T11:25:23;14.00;99.90
53802;DHT22;39709;53.334;6.534;2022-10-31T11:28:03;14.00;97.70
53802;DHT22;39709;53.334;6.534;2022-10-31T11:30:30;14.10;99.90
53802;DHT22;39709;53.334;6.534;2022-10-31T11:32:56;13.90;99.90
53802;DHT22;39709;53.334;6.534;2022-10-31T11:35:24;13.90;95.40
53802;DHT22;39709;53.334;6.534;2022-10-31T11:37:51;14.10;86.90
53802;DHT22;39709;53.334;6.534;2022-10-31T11:40:24;13.80;97.30
53802;DHT22;39709;53.334;6.534;2022-10-31T11:42:51;14.00;99.90
53802;DHT22;39709;53.334;6.534;2022-10-31T11:45:31;14.00;98.70
53802;DHT22;39709;53.334;6.534;2022-10-31T11:47:57;13.80;92.90
53802;DHT22;39709;53.334;6.534;2022-10-31T11:50:36;13.90;96.10
53802;DHT22;39709;53.334;6.534;2022-10-31T11:53:09;13.70;87.00
53802;DHT22;39709;53.334;6.534;2022-10-31T11:55:38;13.60;72.50
53802;DHT22;39709;53.334;6.534;2022-10-31T11:58:18;13.60;80.30
53802;DHT22;39709;53.334;6.534;2022-10-31T12:00:50;13.80;93.80
53802;DHT22;39709;53.334;6.534;2022-10-31T12:03:38;13.60;99.90
53802;DHT22;39709;53.334;6.534;2022-10-31T12:06:12;13.80;99.90
53802;DHT22;39709;53.334;6.534;2022-10-31T12:08:40;13.90;99.90
53802;DHT22;39709;53.334;6.534;2022-10-31T12:13:54;13.90;99.90
53802;DHT22;39709;53.334;6.534;2022-10-31T12:16:34;14.00;99.90
53802;DHT22;39709;53.334;6.534;2022-10-31T12:19:12;13.70;99.90
53802;DHT22;39709;53.334;6.534;2022-10-31T12:22:05;13.70;99.90
53802;DHT22;39709;53.334;6.534;2022-10-31T12:24:47;14.10;99.90
53802;DHT22;39709;53.334;6.534;2022-10-31T12:30:17;14.10;99.90
53802;DHT22;39709;53.334;6.534;2022-10-31T12:41:02;14.10;92.40
53802;DHT22;39709;53.334;6.534;2022-10-31T12:47:03;14.10;99.90
53802;DHT22;39709;53.334;6.534;2022-10-31T12:57:44;14.60;99.90
53802;DHT22;39709;53.334;6.534;2022-10-31T13:00:15;14.50;99.10
53802;DHT22;39709;53.334;6.534;2022-10-31T13:05:43;14.50;99.90
53802;DHT22;39709;53.334;6.534;2022-10-31T13:08:25;14.40;66.90
53802;DHT22;39709;53.334;6.534;2022-10-31T13:11:11;14.30;77.50
53802;DHT22;39709;53.334;6.534;2022-10-31T13:13:40;14.40;99.90
53802;DHT22;39709;53.334;6.534;2022-10-31T13:16:14;14.30;97.90
53802;DHT22;39709;53.334;6.534;2022-10-31T13:24:04;14.80;99.90
53802;DHT22;39709;53.334;6.534;2022-10-31T13:26:58;14.90;90.90
53802;DHT22;39709;53.334;6.534;2022-10-31T13:29:32;15.00;62.60
53802;DHT22;39709;53.334;6.534;2022-10-31T13:32:00;14.90;48.80
53802;DHT22;39709;53.334;6.534;2022-10-31T13:34:36;14.50;50.00
53802;DHT22;39709;53.334;6.534;2022-10-31T13:42:57;14.50;94.30
53802;DHT22;39709;53.334;6.534;2022-10-31T13:45:26;14.20;95.80
53802;DHT22;39709;53.334;6.534;2022-10-31T13:50:54;14.60;99.90
53802;DHT22;39709;53.334;6.534;2022-10-31T13:53:22;14.70;99.90
53802;DHT22;39709;53.334;6.534;2022-10-31T13:56:05;15.00;86.20
53802;DHT22;39709;53.334;6.534;2022-10-31T13:58:36;15.10;62.60
53802;DHT22;39709;53.334;6.534;2022-10-31T14:03:42;15.00;68.20
53802;DHT22;39709;53.334;6.534;2022-10-31T14:06:09;15.00;32.60
53802;DHT22;39709;53.334;6.534;2022-10-31T14:08:40;15.10;23.80
53802;DHT22;39709;53.334;6.534;2022-10-31T14:11:08;15.40;1.00
53802;DHT22;39709;53.334;6.534;2022-10-31T14:13:44;15.30;1.00
53802;DHT22;39709;53.334;6.534;2022-10-31T14:16:26;15.50;1.00
53802;DHT22;39709;53.334;6.534;2022-10-31T14:21:30;15.10;1.00
53802;DHT22;39709;53.334;6.534;2022-10-31T14:23:57;15.00;1.00
53802;DHT22;39709;53.334;6.534;2022-10-31T14:28:50;15.00;1.00
53802;DHT22;39709;53.334;6.534;2022-10-31T14:42:06;14.80;1.00
53802;DHT22;39709;53.334;6.534;2022-10-31T14:47:38;14.90;29.40
53802;DHT22;39709;53.334;6.534;2022-10-31T14:50:35;14.70;18.60
53802;DHT22;39709;53.334;6.534;2022-10-31T14:53:05;14.80;7.80
53802;DHT22;39709;53.334;6.534;2022-10-31T14:55:31;14.90;1.00
53802;DHT22;39709;53.334;6.534;2022-10-31T14:58:04;14.90;1.00
53802;DHT22;39709;53.334;6.534;2022-10-31T15:00:32;14.90;2.80
53802;DHT22;39709;53.334;6.534;2022-10-31T15:05:42;14.90;8.80
53802;DHT22;39709;53.334;6.534;2022-10-31T15:08:37;15.00;1.00
53802;DHT22;39709;53.334;6.534;2022-10-31T15:11:11;14.90;1.00
53802;DHT22;39709;53.334;6.534;2022-10-31T15:16:34;15.00;1.00
53802;DHT22;39709;53.334;6.534;2022-10-31T15:19:06;14.90;1.00
53802;DHT22;39709;53.334;6.534;2022-10-31T15:21:33;14.80;1.00
53802;DHT22;39709;53.334;6.534;2022-10-31T15:24:00;14.90;1.00
53802;DHT22;39709;53.334;6.534;2022-10-31T15:26:31;14.80;1.00
53802;DHT22;39709;53.334;6.534;2022-10-31T15:29:01;15.00;1.00
53802;DHT22;39709;53.334;6.534;2022-10-31T15:31:28;14.90;1.00
53802;DHT22;39709;53.334;6.534;2022-10-31T15:33:54;14.90;1.00
53802;DHT22;39709;53.334;6.534;2022-10-31T15:36:28;15.00;1.00
53802;DHT22;39709;53.334;6.534;2022-10-31T15:38:55;15.00;1.00
53802;DHT22;39709;53.334;6.534;2022-10-31T15:41:33;14.90;1.00
53802;DHT22;39709;53.334;6.534;2022-10-31T15:44:14;14.80;1.00
53802;DHT22;39709;53.334;6.534;2022-10-31T15:46:41;14.80;1.00
53802;DHT22;39709;53.334;6.534;2022-10-31T15:49:26;14.70;1.00
53802;DHT22;39709;53.334;6.534;2022-10-31T15:51:52;14.60;1.00
53802;DHT22;39709;53.334;6.534;2022-10-31T15:54:18;14.70;1.70
53802;DHT22;39709;53.334;6.534;2022-10-31T15:56:44;14.60;2.10
53802;DHT22;39709;53.334;6.534;2022-10-31T15:59:22;14.70;5.10
53802;DHT22;39709;53.334;6.534;2022-10-31T16:02:02;14.70;6.40
53802;DHT22;39709;53.334;6.534;2022-10-31T16:04:28;14.70;7.40
53802;DHT22;39709;53.334;6.534;2022-10-31T16:07:18;14.70;8.00
53802;DHT22;39709;53.334;6.534;2022-10-31T16:09:59;14.70;8.50
53802;DHT22;39709;53.334;6.534;2022-10-31T16:12:36;14.60;7.90
53802;DHT22;39709;53.334;6.534;2022-10-31T16:15:03;14.50;10.10
53802;DHT22;39709;53.334;6.534;2022-10-31T16:17:30;14.70;6.00
53802;DHT22;39709;53.334;6.534;2022-10-31T16:20:00;14.60;2.70
53802;DHT22;39709;53.334;6.534;2022-10-31T16:22:31;14.60;3.80
53802;DHT22;39709;53.334;6.534;2022-10-31T16:27:29;14.60;1.90
53802;DHT22;39709;53.334;6.534;2022-10-31T16:29:56;14.60;1.00
53802;DHT22;39709;53.334;6.534;2022-10-31T16:32:34;14.70;1.00
53802;DHT22;39709;53.334;6.534;2022-10-31T16:37:39;14.60;1.00
53802;DHT22;39709;53.334;6.534;2022-10-31T16:40:05;14.70;1.00
53802;DHT22;39709;53.334;6.534;2022-10-31T16:42:30;14.70;1.00
53802;DHT22;39709;53.334;6.534;2022-10-31T16:44:57;14.60;1.00
53802;DHT22;39709;53.334;6.534;2022-10-31T16:47:22;14.80;1.00
53802;DHT22;39709;53.334;6.534;2022-10-31T16:49:49;14.60;1.00
53802;DHT22;39709;53.334;6.534;2022-10-31T16:52:16;14.70;4.30
53802;DHT22;39709;53.334;6.534;2022-10-31T16:54:41;14.70;5.80
53802;DHT22;39709;53.334;6.534;2022-10-31T16:57:15;14.60;8.70
53802;DHT22;39709;53.334;6.534;2022-10-31T16:59:42;14.50;9.20
53802;DHT22;39709;53.334;6.534;2022-10-31T17:02:14;14.50;12.30
53802;DHT22;39709;53.334;6.534;2022-10-31T17:04:41;14.50;19.50
53802;DHT22;39709;53.334;6.534;2022-10-31T17:07:06;14.30;28.70
53802;DHT22;39709;53.334;6.534;2022-10-31T17:09:32;14.20;42.30
53802;DHT22;39709;53.334;6.534;2022-10-31T17:11:58;14.30;41.00
53802;DHT22;39709;53.334;6.534;2022-10-31T17:14:24;14.10;44.70
53802;DHT22;39709;53.334;6.534;2022-10-31T17:16:50;14.20;49.70
53802;DHT22;39709;53.334;6.534;2022-10-31T17:19:16;14.30;49.00
53802;DHT22;39709;53.334;6.534;2022-10-31T17:21:42;14.20;46.60
53802;DHT22;39709;53.334;6.534;2022-10-31T17:24:12;14.30;38.30
53802;DHT22;39709;53.334;6.534;2022-10-31T17:26:38;14.40;31.10
53802;DHT22;39709;53.334;6.534;2022-10-31T17:29:03;14.30;31.70
53802;DHT22;39709;53.334;6.534;2022-10-31T17:31:32;14.30;36.80
53802;DHT22;39709;53.334;6.534;2022-10-31T17:34:01;14.30;35.10
53802;DHT22;39709;53.334;6.534;2022-10-31T17:36:28;14.40;27.80
53802;DHT22;39709;53.334;6.534;2022-10-31T17:38:54;14.30;25.90
53802;DHT22;39709;53.334;6.534;2022-10-31T17:41:19;14.40;27.00
53802;DHT22;39709;53.334;6.534;2022-10-31T17:43:45;14.30;22.90
53802;DHT22;39709;53.334;6.534;2022-10-31T17:46:11;14.40;25.40
53802;DHT22;39709;53.334;6.534;2022-10-31T17:48:37;14.30;23.00
53802;DHT22;39709;53.334;6.534;2022-10-31T17:51:04;14.40;24.50
53802;DHT22;39709;53.334;6.534;2022-10-31T17:53:31;14.40;22.30
53802;DHT22;39709;53.334;6.534;2022-10-31T17:56:04;14.40;16.40
53802;DHT22;39709;53.334;6.534;2022-10-31T17:58:30;14.50;13.20
53802;DHT22;39709;53.334;6.534;2022-10-31T18:00:56;14.50;14.90
53802;DHT22;39709;53.334;6.534;2022-10-31T18:03:22;14.40;14.40
53802;DHT22;39709;53.334;6.534;2022-10-31T18:05:56;14.60;11.60
53802;DHT22;39709;53.334;6.534;2022-10-31T18:08:31;14.40;10.00
53802;DHT22;39709;53.334;6.534;2022-10-31T18:10:57;14.50;12.40